Time;durP1;ratioP1;P1;durP2;ratioP2;P2;SDS_P1;SDS_P2;PMS_P1;PMS_P2;Temp;Humidity;BMP_temperature;BMP_pressure;BME280_temperature;BME280_humidity;BME280_pressure;Samples;Min_cycle;Max_cycle;Signal;HPM_P1;HPM_P2
2023/05/09 00:01:35;;;;;;;5.03;4.57;;;17.50;99.90;;;;;;5088406;28;20028;-72
2023/05/09 00:04:01;;;;;;;10.00;5.55;;;17.50;99.90;;;;;;5071069;28;20456;-72
2023/05/09 00:06:27;;;;;;;10.95;5.22;;;17.50;99.90;;;;;;5073270;28;20036;-72
2023/05/09 00:08:54;;;;;;;7.30;4.85;;;17.50;99.90;;;;;;5072237;28;20036;-72
2023/05/09 00:11:23;;;;;;;9.57;5.45;;;17.50;99.90;;;;;;5071596;28;20102;-72
2023/05/09 00:13:49;;;;;;;11.93;5.38;;;17.50;99.90;;;;;;5088240;28;20029;-72
2023/05/09 00:16:16;;;;;;;11.35;4.82;;;17.50;99.90;;;;;;5071462;28;20040;-72
2023/05/09 00:18:42;;;;;;;10.90;4.72;;;17.50;99.90;;;;;;5070995;28;20028;-72
2023/05/09 00:21:09;;;;;;;8.65;4.93;;;17.50;99.90;;;;;;5071455;28;20040;-72
2023/05/09 00:23:36;;;;;;;9.93;5.00;;;17.50;99.90;;;;;;5088029;28;20021;-72
2023/05/09 00:26:03;;;;;;;10.48;5.15;;;17.50;99.90;;;;;;5072962;28;20036;-72
2023/05/09 00:28:29;;;;;;;8.55;4.97;;;17.50;99.90;;;;;;5072228;28;20028;-72
2023/05/09 00:30:56;;;;;;;9.40;4.53;;;17.50;99.90;;;;;;5072421;28;20033;-72
2023/05/09 00:33:25;;;;;;;14.50;5.95;;;17.50;99.90;;;;;;5070967;28;20040;-72
2023/05/09 00:35:54;;;;;;;8.35;4.72;;;17.50;99.90;;;;;;5071409;28;20024;-72
2023/05/09 00:38:21;;;;;;;9.73;5.32;;;17.40;99.90;;;;;;5070343;28;20036;-72
2023/05/09 00:40:48;;;;;;;14.55;5.80;;;17.40;99.90;;;;;;5057405;28;20037;-72
2023/05/09 00:43:15;;;;;;;11.48;6.07;;;17.40;99.90;;;;;;5072451;28;20028;-72
2023/05/09 00:45:42;;;;;;;7.60;5.47;;;17.40;99.90;;;;;;5087339;28;20044;-72
2023/05/09 00:48:08;;;;;;;10.77;5.70;;;17.40;99.90;;;;;;5071374;28;20029;-72
2023/05/09 00:50:35;;;;;;;9.55;5.57;;;17.40;99.90;;;;;;5070431;28;20055;-72
2023/05/09 00:53:02;;;;;;;9.68;5.78;;;17.50;99.90;;;;;;5072096;28;20032;-72
2023/05/09 00:55:28;;;;;;;8.90;5.50;;;17.40;99.90;;;;;;5087835;28;20035;-72
2023/05/09 00:57:54;;;;;;;8.02;5.25;;;17.40;99.90;;;;;;5073013;28;20041;-72
2023/05/09 01:00:21;;;;;;;12.55;5.38;;;17.40;99.90;;;;;;5073050;28;20154;-72
2023/05/09 01:02:49;;;;;;;11.40;5.22;;;17.40;99.90;;;;;;5092546;28;20032;-72
2023/05/09 01:05:15;;;;;;;10.82;5.32;;;17.40;99.90;;;;;;5057508;28;20063;-72
2023/05/09 01:08:06;;;;;;;9.80;5.03;;;17.40;99.90;;;;;;5074232;28;20024;-72
2023/05/09 01:10:38;;;;;;;;;;;17.30;99.90;;;;;;5056510;28;20044;-72
2023/05/09 01:13:06;;;;;;;7.15;4.75;;;17.30;99.90;;;;;;5074403;28;19915;-72
2023/05/09 01:15:36;;;;;;;10.27;5.00;;;17.20;99.90;;;;;;5090455;28;20027;-72
2023/05/09 01:18:08;;;;;;;11.02;4.88;;;17.20;99.90;;;;;;5056753;28;20036;-72
2023/05/09 01:20:45;;;;;;;8.23;4.72;;;17.20;99.90;;;;;;5056455;28;20032;-72
2023/05/09 01:23:32;;;;;;;7.15;4.68;;;17.20;99.90;;;;;;5070608;28;20032;-72
2023/05/09 01:26:07;;;;;;;7.85;4.70;;;17.20;99.90;;;;;;5053689;28;20033;-72
2023/05/09 01:29:05;;;;;;;9.07;5.03;;;17.20;99.90;;;;;;5053269;28;20397;-72
2023/05/09 01:31:32;;;;;;;9.60;5.15;;;17.30;99.90;;;;;;5069845;28;20032;-72
2023/05/09 01:33:59;;;;;;;7.80;4.93;;;17.20;99.90;;;;;;5069850;28;20020;-72
2023/05/09 01:36:28;;;;;;;10.50;5.40;;;17.20;99.90;;;;;;5053800;28;20024;-73
2023/05/09 01:38:55;;;;;;;8.15;4.90;;;17.20;99.90;;;;;;5056338;28;20032;-72
2023/05/09 01:41:21;;;;;;;8.43;5.05;;;17.20;99.90;;;;;;5054047;28;20029;-72
2023/05/09 01:43:47;;;;;;;7.85;5.05;;;17.20;99.90;;;;;;5056152;28;20377;-72
2023/05/09 01:46:13;;;;;;;8.75;5.07;;;17.20;99.90;;;;;;5090386;28;20029;-72
2023/05/09 01:48:40;;;;;;;7.47;5.30;;;17.20;99.90;;;;;;5073841;28;20024;-72
2023/05/09 01:51:06;;;;;;;9.45;4.93;;;17.20;99.90;;;;;;5077566;28;20391;-72
2023/05/09 01:53:32;;;;;;;10.23;5.40;;;17.10;99.90;;;;;;5077752;28;20504;-73
2023/05/09 01:55:58;;;;;;;9.52;5.35;;;17.20;99.90;;;;;;5061460;28;20473;-72
2023/05/09 01:58:25;;;;;;;7.65;4.95;;;17.20;99.90;;;;;;5061168;28;20055;-72
2023/05/09 02:00:51;;;;;;;8.13;5.25;;;17.20;99.90;;;;;;5059229;28;20036;-72
2023/05/09 02:03:17;;;;;;;8.40;5.22;;;17.10;99.90;;;;;;5064159;28;20047;-72
2023/05/09 02:05:43;;;;;;;7.50;5.20;;;17.20;99.90;;;;;;5068048;28;20045;-72
2023/05/09 02:08:09;;;;;;;6.68;5.25;;;17.10;99.90;;;;;;5076344;28;20485;-73
2023/05/09 02:10:35;;;;;;;10.18;5.50;;;17.10;99.90;;;;;;5059681;28;20033;-72
2023/05/09 02:13:01;;;;;;;9.85;5.50;;;17.20;99.90;;;;;;5059205;28;20496;-72
2023/05/09 02:15:28;;;;;;;8.63;5.18;;;17.10;99.90;;;;;;5092011;28;20036;-72
2023/05/09 02:17:54;;;;;;;8.48;5.13;;;17.10;99.90;;;;;;5094526;28;20036;-72
2023/05/09 02:20:20;;;;;;;7.22;5.15;;;17.10;99.90;;;;;;5092924;28;20039;-72
2023/05/09 02:22:46;;;;;;;9.13;5.47;;;17.10;99.90;;;;;;5094246;28;20039;-72
2023/05/09 02:25:15;;;;;;;6.72;4.97;;;17.20;99.90;;;;;;5075878;28;20094;-72
2023/05/09 02:27:43;;;;;;;7.88;5.38;;;17.00;99.90;;;;;;5093581;28;20500;-72
2023/05/09 02:30:13;;;;;;;9.75;4.97;;;17.00;99.90;;;;;;5063514;28;20033;-73
2023/05/09 02:32:39;;;;;;;10.77;5.10;;;17.00;99.90;;;;;;5082526;28;20044;-72
2023/05/09 02:35:06;;;;;;;5.55;4.80;;;17.00;99.90;;;;;;5075359;28;20270;-72
2023/05/09 02:37:32;;;;;;;8.82;5.13;;;17.00;99.90;;;;;;5076683;28;20040;-72
2023/05/09 02:39:58;;;;;;;5.50;4.70;;;17.10;99.90;;;;;;5084468;28;20032;-73
2023/05/09 02:42:25;;;;;;;8.23;5.10;;;17.00;99.90;;;;;;5080046;28;20036;-72
2023/05/09 02:44:52;;;;;;;7.55;4.93;;;17.10;99.90;;;;;;5076813;28;20020;-72
2023/05/09 02:47:18;;;;;;;6.78;4.95;;;17.10;99.90;;;;;;5092366;28;20438;-72
2023/05/09 02:49:44;;;;;;;6.93;4.90;;;17.00;99.90;;;;;;5093973;28;20043;-72
2023/05/09 02:52:11;;;;;;;7.40;5.10;;;17.00;99.90;;;;;;5094878;28;20043;-72
2023/05/09 02:54:37;;;;;;;5.50;4.53;;;17.10;99.90;;;;;;5094468;28;20526;-72
2023/05/09 02:57:03;;;;;;;6.53;4.43;;;17.10;99.90;;;;;;5076995;28;20035;-72
2023/05/09 02:59:30;;;;;;;6.32;4.72;;;17.00;99.90;;;;;;5092955;28;20047;-72
2023/05/09 03:01:56;;;;;;;6.22;4.40;;;17.00;99.90;;;;;;5093152;28;20031;-72
2023/05/09 03:04:22;;;;;;;7.55;4.90;;;16.90;99.90;;;;;;5076133;28;20031;-72
2023/05/09 03:06:48;;;;;;;6.88;4.72;;;16.90;99.90;;;;;;5076607;28;20133;-72
2023/05/09 03:09:14;;;;;;;5.50;4.57;;;17.00;99.90;;;;;;5093183;28;20047;-72
2023/05/09 03:11:40;;;;;;;6.47;4.18;;;17.00;99.90;;;;;;5094426;28;20147;-72
2023/05/09 03:14:07;;;;;;;6.78;4.57;;;17.00;99.90;;;;;;5094128;28;20028;-72
2023/05/09 03:16:33;;;;;;;7.53;4.53;;;17.00;99.90;;;;;;5093997;28;20043;-73
2023/05/09 03:19:00;;;;;;;5.70;4.70;;;16.90;99.90;;;;;;5058202;28;20032;-73
2023/05/09 03:21:26;;;;;;;7.68;5.57;;;16.90;99.90;;;;;;5062596;28;20095;-72
2023/05/09 03:23:52;;;;;;;5.38;4.88;;;16.90;99.90;;;;;;5077037;28;20179;-72
2023/05/09 03:26:18;;;;;;;5.93;5.35;;;16.90;99.90;;;;;;5076311;28;20024;-72
2023/05/09 03:28:45;;;;;;;7.22;4.78;;;16.90;99.90;;;;;;5094283;28;20473;-72
2023/05/09 03:31:11;;;;;;;7.13;5.07;;;17.00;99.90;;;;;;5092911;28;20043;-72
2023/05/09 03:33:37;;;;;;;5.93;4.97;;;17.00;99.90;;;;;;5074853;28;20040;-72
2023/05/09 03:36:04;;;;;;;7.43;5.50;;;16.90;99.90;;;;;;5073754;28;20028;-73
2023/05/09 03:38:30;;;;;;;7.28;5.38;;;16.80;99.90;;;;;;5056106;28;20386;-72
2023/05/09 03:40:56;;;;;;;8.02;5.20;;;16.80;99.90;;;;;;5072138;28;20028;-73
2023/05/09 03:43:22;;;;;;;5.90;4.35;;;16.70;99.90;;;;;;5092168;28;20457;-73
2023/05/09 03:45:48;;;;;;;7.20;4.15;;;16.80;99.90;;;;;;5075152;28;20059;-72
2023/05/09 03:48:15;;;;;;;6.15;4.38;;;16.70;99.90;;;;;;5092336;28;20035;-73
2023/05/09 03:50:41;;;;;;;5.70;4.20;;;16.70;99.90;;;;;;5092450;28;20051;-73
2023/05/09 03:53:07;;;;;;;4.40;4.00;;;16.70;99.90;;;;;;5093480;28;20032;-72
2023/05/09 03:55:33;;;;;;;5.78;4.18;;;16.60;99.90;;;;;;5092339;28;20024;-72
2023/05/09 03:57:59;;;;;;;4.80;4.07;;;16.70;99.90;;;;;;5075747;28;20040;-72
2023/05/09 04:00:25;;;;;;;5.68;3.97;;;16.70;99.90;;;;;;5091220;28;20040;-72
2023/05/09 04:02:52;;;;;;;5.43;4.00;;;16.70;99.90;;;;;;5075179;28;20038;-72
2023/05/09 04:05:18;;;;;;;4.10;3.75;;;16.60;99.90;;;;;;5070792;28;20370;-72
2023/05/09 04:07:44;;;;;;;4.60;4.00;;;16.60;99.90;;;;;;5083200;28;20381;-72
2023/05/09 04:10:10;;;;;;;4.90;4.40;;;16.60;99.90;;;;;;5091251;28;20036;-72
2023/05/09 04:12:36;;;;;;;4.80;4.30;;;16.60;99.90;;;;;;5091998;28;20036;-72
2023/05/09 04:15:03;;;;;;;10.18;4.32;;;16.50;99.90;;;;;;5091691;28;20032;-71
2023/05/09 04:17:29;;;;;;;5.65;3.88;;;16.60;99.90;;;;;;5062384;28;20477;-72
2023/05/09 04:19:55;;;;;;;5.57;3.80;;;16.50;99.90;;;;;;5072686;28;20040;-72
2023/05/09 04:22:21;;;;;;;5.40;3.83;;;16.50;99.90;;;;;;5076530;28;20086;-72
2023/05/09 04:24:47;;;;;;;6.82;4.30;;;16.60;99.90;;;;;;5093564;28;20510;-72
2023/05/09 04:27:13;;;;;;;5.35;3.90;;;16.60;99.90;;;;;;5067915;28;20041;-72
2023/05/09 04:29:39;;;;;;;5.30;4.13;;;16.60;99.90;;;;;;5086602;28;20381;-72
2023/05/09 04:32:05;;;;;;;6.13;4.47;;;16.50;99.90;;;;;;5071940;28;20050;-73
2023/05/09 04:34:32;;;;;;;6.15;4.07;;;16.60;99.90;;;;;;5092574;28;20480;-73
2023/05/09 04:36:58;;;;;;;6.32;4.20;;;16.60;99.90;;;;;;5091849;28;20046;-74
2023/05/09 04:39:24;;;;;;;4.50;4.10;;;16.60;99.90;;;;;;5088105;28;20025;-74
2023/05/09 04:41:51;;;;;;;7.85;4.00;;;16.60;99.90;;;;;;5071596;28;20036;-73
2023/05/09 04:44:17;;;;;;;5.95;3.70;;;16.60;99.90;;;;;;5076877;28;20026;-73
2023/05/09 04:46:43;;;;;;;4.75;3.85;;;16.60;99.90;;;;;;5091337;28;20115;-73
2023/05/09 04:49:09;;;;;;;6.95;3.97;;;16.50;99.90;;;;;;5058103;28;20047;-73
2023/05/09 04:51:36;;;;;;;4.40;4.00;;;16.50;99.90;;;;;;5091473;28;20062;-73
2023/05/09 04:54:02;;;;;;;5.97;3.92;;;16.60;99.90;;;;;;5092653;28;20040;-73
2023/05/09 04:56:28;;;;;;;4.53;3.90;;;16.70;99.90;;;;;;5073027;28;20051;-70
2023/05/09 04:58:54;;;;;;;6.28;3.88;;;16.60;99.90;;;;;;5091411;28;20519;-73
2023/05/09 05:01:20;;;;;;;7.53;4.50;;;16.60;99.90;;;;;;5091969;28;20059;-73
2023/05/09 05:03:47;;;;;;;4.10;3.70;;;16.60;99.90;;;;;;5092022;28;20028;-71
2023/05/09 05:06:13;;;;;;;4.22;3.80;;;16.50;99.90;;;;;;5092151;28;20365;-71
2023/05/09 05:08:39;;;;;;;5.35;3.90;;;16.50;99.90;;;;;;5073413;28;20036;-73
2023/05/09 05:11:05;;;;;;;4.28;3.92;;;16.50;99.90;;;;;;5092310;28;20036;-73
2023/05/09 05:13:31;;;;;;;6.45;4.13;;;16.60;99.90;;;;;;5092006;28;20058;-72
2023/05/09 05:15:57;;;;;;;4.28;3.63;;;16.60;99.90;;;;;;5091563;28;20040;-73
2023/05/09 05:18:23;;;;;;;5.25;3.70;;;16.70;99.90;;;;;;5073210;28;20040;-72
2023/05/09 05:20:49;;;;;;;4.97;4.13;;;16.60;99.90;;;;;;5057398;28;20036;-72
2023/05/09 05:23:15;;;;;;;5.97;4.00;;;16.60;99.90;;;;;;5091814;28;20032;-73
2023/05/09 05:25:42;;;;;;;5.78;3.95;;;16.60;99.90;;;;;;5091951;28;20032;-73
2023/05/09 05:28:08;;;;;;;4.60;4.20;;;16.60;99.90;;;;;;5090948;28;20043;-72
2023/05/09 05:30:34;;;;;;;5.00;4.50;;;16.70;99.90;;;;;;5091587;28;20485;-73
2023/05/09 05:33:00;;;;;;;4.80;3.80;;;16.70;99.90;;;;;;5092126;28;20047;-72
2023/05/09 05:35:27;;;;;;;4.68;4.28;;;16.60;99.90;;;;;;5091747;28;20033;-73
2023/05/09 05:37:53;;;;;;;4.88;4.00;;;16.60;99.90;;;;;;5060826;28;20029;-72
2023/05/09 05:40:20;;;;;;;5.05;4.00;;;16.60;99.90;;;;;;5073620;28;20035;-71
2023/05/09 05:42:46;;;;;;;4.30;3.90;;;16.60;99.90;;;;;;5091733;28;20032;-71
2023/05/09 05:45:12;;;;;;;4.28;3.80;;;16.70;99.90;;;;;;5091067;28;20024;-71
2023/05/09 05:47:38;;;;;;;4.40;3.97;;;16.70;99.90;;;;;;5091634;28;20032;-71
2023/05/09 05:50:10;;;;;;;4.68;4.30;;;16.60;99.90;;;;;;5091889;28;20043;-72
2023/05/09 05:52:40;;;;;;;4.40;4.10;;;16.60;99.90;;;;;;5074605;28;20043;-71
2023/05/09 05:55:06;;;;;;;4.03;3.72;;;16.60;99.90;;;;;;5090814;28;20031;-71
2023/05/09 05:57:36;;;;;;;5.45;4.20;;;16.60;99.90;;;;;;5072183;28;20055;-71
2023/05/09 06:00:05;;;;;;;5.78;4.40;;;16.70;99.90;;;;;;5074253;28;20051;-71
2023/05/09 06:02:31;;;;;;;7.10;4.20;;;16.70;99.90;;;;;;5066228;28;20033;-71
2023/05/09 06:04:57;;;;;;;4.32;4.00;;;16.70;99.90;;;;;;5053803;28;20032;-71
2023/05/09 06:07:24;;;;;;;4.30;3.60;;;16.70;99.90;;;;;;5089476;28;20036;-71
2023/05/09 06:09:50;;;;;;;7.78;4.15;;;16.80;99.90;;;;;;5090453;28;20028;-71
2023/05/09 06:12:16;;;;;;;4.82;4.43;;;16.80;99.90;;;;;;5090296;28;20024;-71
2023/05/09 06:14:42;;;;;;;4.50;4.10;;;16.80;99.90;;;;;;5090377;28;20381;-71
2023/05/09 06:17:08;;;;;;;5.03;4.53;;;16.80;99.90;;;;;;5088897;28;20496;-71
2023/05/09 06:19:34;;;;;;;4.38;4.07;;;16.80;99.90;;;;;;5073616;28;20024;-71
2023/05/09 06:22:00;;;;;;;4.78;4.38;;;16.80;99.90;;;;;;5073729;28;20047;-71
2023/05/09 06:24:26;;;;;;;4.40;4.10;;;16.80;99.90;;;;;;5073756;28;20032;-71
2023/05/09 06:26:53;;;;;;;5.90;4.25;;;16.70;99.90;;;;;;5055237;28;20040;-71
2023/05/09 06:29:19;;;;;;;6.10;4.60;;;16.80;99.90;;;;;;5058227;28;20029;-71
2023/05/09 06:31:45;;;;;;;5.63;5.13;;;16.80;99.90;;;;;;5052842;28;20043;-71
2023/05/09 06:34:11;;;;;;;8.23;4.45;;;16.80;99.90;;;;;;5071613;28;20456;-71
2023/05/09 06:36:37;;;;;;;5.07;4.75;;;16.80;99.90;;;;;;5078794;28;20039;-71
2023/05/09 06:39:03;;;;;;;4.88;4.05;;;16.80;99.90;;;;;;5076956;28;20456;-71
2023/05/09 06:41:29;;;;;;;4.78;4.38;;;16.80;99.90;;;;;;5076773;28;20043;-71
2023/05/09 06:43:55;;;;;;;4.53;4.10;;;16.80;99.90;;;;;;5077072;28;20059;-73
2023/05/09 06:46:21;;;;;;;5.10;4.05;;;16.70;99.90;;;;;;5072066;28;20032;-71
2023/05/09 06:48:47;;;;;;;4.30;3.90;;;16.80;99.90;;;;;;5091376;28;20047;-72
2023/05/09 06:51:14;;;;;;;4.88;4.47;;;16.80;99.90;;;;;;5075416;28;20072;-70
2023/05/09 06:53:40;;;;;;;6.55;4.28;;;16.80;99.90;;;;;;5094544;28;20028;-71
2023/05/09 06:56:06;;;;;;;5.13;3.80;;;16.90;99.90;;;;;;5094484;28;20031;-73
2023/05/09 06:58:32;;;;;;;5.15;4.72;;;16.90;99.90;;;;;;5092372;28;20406;-73
2023/05/09 07:00:58;;;;;;;5.10;4.70;;;16.90;99.90;;;;;;5073798;28;20032;-73
2023/05/09 07:03:25;;;;;;;4.65;4.35;;;17.00;99.90;;;;;;5058924;28;20054;-72
2023/05/09 07:05:51;;;;;;;4.72;4.20;;;16.90;99.90;;;;;;5093142;28;20388;-72
2023/05/09 07:08:17;;;;;;;4.78;4.47;;;17.00;99.90;;;;;;5082855;28;20027;-73
2023/05/09 07:10:43;;;;;;;4.85;4.25;;;16.90;99.90;;;;;;5093381;28;20020;-73
2023/05/09 07:13:09;;;;;;;6.15;4.50;;;17.00;99.90;;;;;;5090689;28;20496;-72
2023/05/09 07:15:35;;;;;;;4.78;4.32;;;17.00;99.90;;;;;;5073559;28;20036;-72
2023/05/09 07:18:01;;;;;;;4.70;4.30;;;16.90;99.90;;;;;;5076364;28;20465;-72
2023/05/09 07:20:27;;;;;;;5.47;4.10;;;17.00;99.90;;;;;;5094070;28;20024;-72
2023/05/09 07:22:53;;;;;;;4.60;4.18;;;16.90;99.90;;;;;;5075595;28;20492;-72
2023/05/09 07:25:20;;;;;;;4.50;4.10;;;16.90;99.90;;;;;;5091723;28;20035;-72
2023/05/09 07:27:46;;;;;;;7.10;4.80;;;17.00;99.90;;;;;;5074591;28;20040;-71
2023/05/09 07:30:12;;;;;;;4.65;4.20;;;17.00;99.90;;;;;;5092556;28;20024;-72
2023/05/09 07:32:38;;;;;;;5.90;4.55;;;17.00;99.90;;;;;;5076212;28;20047;-73
2023/05/09 07:35:05;;;;;;;4.68;4.28;;;17.00;99.90;;;;;;5054643;28;20051;-72
2023/05/09 07:37:31;;;;;;;4.90;4.35;;;17.00;99.90;;;;;;5087229;28;20051;-73
2023/05/09 07:39:57;;;;;;;4.50;4.20;;;17.00;99.90;;;;;;5093525;28;20036;-72
2023/05/09 07:42:23;;;;;;;4.68;4.20;;;17.00;99.90;;;;;;5093848;28;20020;-72
2023/05/09 07:44:49;;;;;;;4.22;3.83;;;17.00;99.90;;;;;;5071463;28;20028;-73
2023/05/09 07:47:15;;;;;;;4.40;4.10;;;17.00;99.90;;;;;;5085681;28;20039;-72
2023/05/09 07:49:42;;;;;;;5.22;4.60;;;17.00;99.90;;;;;;5073819;28;20032;-72
2023/05/09 07:52:08;;;;;;;4.57;4.28;;;17.00;99.90;;;;;;5087152;28;20107;-72
2023/05/09 07:54:34;;;;;;;4.93;4.55;;;17.00;99.90;;;;;;5090666;28;20051;-72
2023/05/09 07:57:00;;;;;;;4.75;4.45;;;17.00;99.90;;;;;;5079773;28;20016;-72
2023/05/09 07:59:26;;;;;;;4.97;4.57;;;17.10;99.90;;;;;;5082284;28;20493;-72
2023/05/09 08:01:52;;;;;;;4.78;4.47;;;17.20;99.90;;;;;;5072666;28;20028;-71
2023/05/09 08:04:18;;;;;;;5.03;4.53;;;17.20;99.90;;;;;;5067573;28;20452;-72
2023/05/09 08:06:45;;;;;;;4.40;4.10;;;17.20;99.90;;;;;;5093209;28;20040;-72
2023/05/09 08:09:11;;;;;;;3.90;3.70;;;17.20;99.90;;;;;;5067978;28;20039;-72
2023/05/09 08:11:37;;;;;;;4.28;3.97;;;17.20;99.90;;;;;;5079925;28;20028;-72
2023/05/09 08:14:03;;;;;;;4.43;4.20;;;17.20;99.90;;;;;;5087356;28;20041;-72
2023/05/09 08:16:29;;;;;;;99.75;9.38;;;17.10;99.90;;;;;;5054657;28;20024;-71
2023/05/09 08:18:56;;;;;;;4.63;4.22;;;17.20;99.90;;;;;;5081746;28;20044;-72
2023/05/09 08:21:22;;;;;;;4.75;4.25;;;17.10;99.90;;;;;;5078690;28;20051;-72
2023/05/09 08:23:48;;;;;;;4.45;4.05;;;17.10;99.90;;;;;;5071267;28;20044;-72
2023/05/09 08:26:14;;;;;;;4.97;4.20;;;17.10;99.90;;;;;;5074998;28;20032;-72
2023/05/09 08:28:40;;;;;;;4.03;3.58;;;17.10;99.90;;;;;;5091508;28;20385;-72
2023/05/09 08:31:06;;;;;;;3.35;3.15;;;16.90;99.90;;;;;;5092291;28;20059;-71
2023/05/09 08:33:32;;;;;;;4.07;3.88;;;16.80;99.90;;;;;;5092488;28;20463;-72
2023/05/09 08:35:58;;;;;;;4.00;3.67;;;16.90;99.90;;;;;;5090810;28;20032;-72
2023/05/09 08:38:24;;;;;;;3.72;3.42;;;16.80;99.90;;;;;;5072404;28;20489;-71
2023/05/09 08:40:50;;;;;;;3.00;2.80;;;16.80;99.90;;;;;;5073062;28;20043;-73
2023/05/09 08:43:18;;;;;;;3.80;3.50;;;16.70;99.90;;;;;;5074353;28;20035;-72
2023/05/09 08:45:50;;;;;;;4.38;3.97;;;16.50;99.90;;;;;;5074397;28;20044;-72
2023/05/09 08:48:18;;;;;;;3.28;2.97;;;16.40;99.90;;;;;;5063134;28;20028;-72
2023/05/09 08:50:44;;;;;;;4.50;3.25;;;16.40;99.90;;;;;;5068921;28;20023;-73
2023/05/09 08:53:10;;;;;;;4.22;3.53;;;16.20;99.90;;;;;;5072042;28;20047;-73
2023/05/09 08:55:37;;;;;;;3.70;3.40;;;16.20;99.90;;;;;;5057682;28;20085;-72
2023/05/09 08:58:03;;;;;;;4.70;3.55;;;16.10;99.90;;;;;;5073544;28;20036;-72
2023/05/09 09:00:29;;;;;;;3.78;3.47;;;16.10;99.90;;;;;;5072369;28;20469;-72
2023/05/09 09:02:56;;;;;;;3.92;3.53;;;16.10;99.90;;;;;;5062775;28;20409;-72
2023/05/09 09:05:23;;;;;;;4.30;3.97;;;16.00;99.90;;;;;;5065727;28;20403;-73
2023/05/09 09:07:49;;;;;;;5.05;3.30;;;16.10;99.90;;;;;;5069787;28;20035;-72
2023/05/09 09:10:15;;;;;;;7.15;3.67;;;16.10;99.90;;;;;;5055560;28;20036;-73
2023/05/09 09:12:42;;;;;;;3.83;3.35;;;16.10;99.90;;;;;;5074185;28;20457;-73
2023/05/09 09:15:09;;;;;;;3.67;3.15;;;16.00;99.90;;;;;;5073687;28;20043;-72
2023/05/09 09:17:36;;;;;;;4.47;3.17;;;16.00;99.90;;;;;;5057394;28;20495;-73
2023/05/09 09:20:06;;;;;;;3.40;2.90;;;15.90;99.90;;;;;;5072688;28;20032;-72
2023/05/09 09:22:33;;;;;;;3.53;3.17;;;15.90;99.90;;;;;;5050925;28;20040;-72
2023/05/09 09:25:00;;;;;;;3.38;3.08;;;15.80;99.90;;;;;;5069229;28;20039;-72
2023/05/09 09:27:27;;;;;;;3.75;3.13;;;15.90;99.90;;;;;;5074258;28;20080;-72
2023/05/09 09:29:53;;;;;;;4.63;3.88;;;15.70;99.90;;;;;;5057010;28;20503;-71
2023/05/09 09:32:19;;;;;;;5.05;4.55;;;15.80;99.90;;;;;;5089372;28;20040;-71
2023/05/09 09:34:51;;;;;;;3.58;3.28;;;15.90;99.90;;;;;;5089401;28;20503;-72
2023/05/09 09:37:23;;;;;;;3.38;3.00;;;16.10;99.90;;;;;;5063936;28;20035;-72
2023/05/09 09:39:55;;;;;;;3.85;3.50;;;16.10;99.90;;;;;;5075724;28;20036;-72
2023/05/09 09:42:22;;;;;;;3.55;2.50;;;16.30;99.90;;;;;;5089860;28;20031;-71
2023/05/09 09:45:08;;;;;;;3.20;3.00;;;16.40;99.90;;;;;;5091154;28;20039;-71
2023/05/09 09:47:34;;;;;;;4.00;3.63;;;16.70;99.90;;;;;;5056053;28;20037;-72
2023/05/09 09:50:17;;;;;;;3.72;3.42;;;16.80;99.90;;;;;;5053788;28;20031;-70
2023/05/09 09:52:49;;;;;;;5.55;4.93;;;17.20;99.90;;;;;;5075461;28;20024;-72
2023/05/09 09:55:15;;;;;;;5.55;5.15;;;17.40;99.90;;;;;;5090442;28;20032;-72
2023/05/09 09:57:44;;;;;;;4.40;4.00;;;17.50;99.90;;;;;;5074192;28;20027;-73
2023/05/09 10:00:12;;;;;;;3.80;3.50;;;17.70;99.90;;;;;;5056304;28;20051;-71
2023/05/09 10:02:48;;;;;;;4.10;3.90;;;17.60;99.90;;;;;;5073017;28;20039;-72
2023/05/09 10:05:24;;;;;;;4.90;4.50;;;17.70;99.90;;;;;;5070496;28;20373;-71
2023/05/09 10:07:58;;;;;;;5.28;4.70;;;17.70;99.90;;;;;;5073928;28;20035;-72
2023/05/09 10:10:31;;;;;;;4.88;4.47;;;17.80;99.90;;;;;;5093946;28;20035;-71
2023/05/09 10:13:02;;;;;;;5.57;5.07;;;17.90;99.90;;;;;;5094985;28;20036;-72
2023/05/09 10:15:30;;;;;;;4.45;4.10;;;18.10;99.90;;;;;;5077520;28;20032;-71
2023/05/09 10:17:57;;;;;;;5.32;4.10;;;18.10;99.90;;;;;;5077398;28;20036;-71
2023/05/09 10:20:24;;;;;;;5.43;4.13;;;18.30;99.90;;;;;;5077629;28;20035;-72
2023/05/09 10:22:55;;;;;;;5.28;3.75;;;18.40;99.90;;;;;;5078223;28;20020;-71
2023/05/09 10:25:24;;;;;;;4.50;3.97;;;18.30;99.90;;;;;;5077318;28;20369;-72
2023/05/09 10:27:50;;;;;;;4.85;3.80;;;18.40;99.90;;;;;;5076338;28;20032;-72
2023/05/09 10:30:18;;;;;;;4.85;3.58;;;18.40;99.90;;;;;;5069995;28;20032;-72
2023/05/09 10:32:50;;;;;;;4.40;4.00;;;18.40;99.90;;;;;;5070860;28;20484;-72
2023/05/09 10:35:17;;;;;;;7.07;4.50;;;18.50;99.90;;;;;;5076252;28;20499;-72
2023/05/09 10:37:47;;;;;;;4.30;3.90;;;18.50;99.90;;;;;;5066314;28;20512;-72
2023/05/09 10:40:14;;;;;;;4.95;4.47;;;18.70;99.90;;;;;;5059236;28;20036;-72
2023/05/09 10:42:43;;;;;;;7.70;4.18;;;18.70;99.90;;;;;;5074844;28;20028;-72
2023/05/09 10:45:11;;;;;;;8.13;4.10;;;18.80;99.90;;;;;;5056083;28;20044;-68
2023/05/09 10:47:38;;;;;;;5.22;4.75;;;18.70;99.90;;;;;;5064090;28;20020;-71
2023/05/09 10:50:08;;;;;;;6.03;4.50;;;18.40;99.90;;;;;;5074502;28;20699;-71
2023/05/09 10:52:45;;;;;;;5.00;4.50;;;18.30;99.90;;;;;;5075959;28;20043;-71
2023/05/09 10:55:11;;;;;;;4.78;4.30;;;18.30;99.90;;;;;;5076158;28;20047;-72
2023/05/09 10:57:37;;;;;;;6.40;4.90;;;18.40;99.90;;;;;;5083902;28;20047;-70
2023/05/09 11:00:04;;;;;;;5.78;4.55;;;18.50;99.90;;;;;;5061104;28;20097;-68
2023/05/09 11:02:33;;;;;;;7.25;5.20;;;18.60;99.90;;;;;;5091501;28;20380;-68
2023/05/09 11:05:15;;;;;;;5.53;5.03;;;18.80;99.90;;;;;;5094005;28;20031;-67
2023/05/09 11:07:42;;;;;;;10.27;5.90;;;18.90;99.90;;;;;;5059898;28;20369;-75
2023/05/09 11:10:09;;;;;;;7.57;4.85;;;18.90;99.90;;;;;;5075285;28;20024;-67
2023/05/09 11:12:55;;;;;;;5.32;4.88;;;19.00;99.90;;;;;;5094164;28;20028;-68
2023/05/09 11:15:22;;;;;;;5.32;4.82;;;19.10;99.90;;;;;;5075144;28;20035;-73
2023/05/09 11:18:04;;;;;;;7.00;5.22;;;19.20;99.90;;;;;;5093272;28;20024;-73
2023/05/09 11:20:34;;;;;;;7.85;6.22;;;19.30;99.90;;;;;;5077346;28;20039;-73
2023/05/09 11:23:04;;;;;;;7.30;5.38;;;19.50;99.90;;;;;;5074769;28;20039;-73
2023/05/09 11:25:31;;;;;;;5.78;5.05;;;19.50;99.90;;;;;;5075115;28;20400;-73
2023/05/09 11:27:59;;;;;;;5.55;5.15;;;19.50;99.90;;;;;;5080019;28;20384;-72
2023/05/09 11:30:39;;;;;;;5.40;4.90;;;19.60;99.90;;;;;;5088022;28;20417;-76
2023/05/09 11:33:05;;;;;;;5.65;5.18;;;19.50;99.90;;;;;;5093607;28;20036;-74
2023/05/09 11:35:32;;;;;;;4.88;4.47;;;19.40;99.90;;;;;;5058082;28;20047;-74
2023/05/09 11:37:59;;;;;;;5.53;5.07;;;19.30;99.90;;;;;;5057348;28;20385;-71
2023/05/09 11:40:26;;;;;;;5.20;4.53;;;19.20;99.90;;;;;;5092709;28;20028;-70
2023/05/09 11:42:53;;;;;;;5.10;4.70;;;19.20;99.90;;;;;;5075137;28;20024;-71
2023/05/09 11:45:19;;;;;;;5.63;5.22;;;19.30;99.90;;;;;;5077748;27;20483;-70
2023/05/09 11:47:46;;;;;;;5.43;5.03;;;19.30;99.90;;;;;;5092378;28;20492;-73
2023/05/09 11:50:13;;;;;;;5.43;5.00;;;19.40;99.90;;;;;;5096250;28;20032;-74
2023/05/09 11:52:40;;;;;;;4.88;4.20;;;19.40;99.90;;;;;;5074041;28;20036;-73
2023/05/09 11:55:11;;;;;;;4.72;4.30;;;19.50;99.90;;;;;;5075371;28;20040;-73
2023/05/09 11:57:41;;;;;;;7.30;4.90;;;19.60;99.90;;;;;;5075486;28;20032;-72
2023/05/09 12:00:09;;;;;;;4.53;3.80;;;19.60;99.90;;;;;;5074425;28;20380;-73
2023/05/09 12:02:36;;;;;;;4.45;4.15;;;19.70;99.90;;;;;;5074531;28;20028;-74
2023/05/09 12:05:09;;;;;;;5.05;4.55;;;19.90;99.90;;;;;;5064314;28;20503;-73
2023/05/09 12:07:38;;;;;;;4.38;4.07;;;20.10;99.90;;;;;;5080937;28;20055;-73
2023/05/09 12:10:07;;;;;;;7.15;5.28;;;20.20;99.90;;;;;;5074988;28;20031;-73
2023/05/09 12:12:34;;;;;;;6.15;5.68;;;20.30;99.90;;;;;;5074648;28;20024;-73
2023/05/09 12:15:06;;;;;;;5.70;5.15;;;20.30;99.90;;;;;;5074055;28;20040;-73
2023/05/09 12:17:32;;;;;;;7.47;7.07;;;20.30;99.90;;;;;;5048811;28;20036;-73
2023/05/09 12:19:59;;;;;;;4.68;4.38;;;20.30;99.90;;;;;;5045648;28;20035;-73
2023/05/09 12:22:26;;;;;;;5.10;4.65;;;20.20;99.90;;;;;;5071380;28;20359;-73
2023/05/09 12:24:53;;;;;;;4.97;4.53;;;20.10;99.90;;;;;;5055187;28;20029;-73
2023/05/09 12:27:19;;;;;;;7.32;3.83;;;20.10;99.90;;;;;;5076355;28;20028;-72
2023/05/09 12:29:47;;;;;;;4.10;3.80;;;20.10;99.90;;;;;;5078184;28;20047;-72
2023/05/09 12:32:16;;;;;;;5.55;5.13;;;20.20;99.90;;;;;;5062198;28;20047;-72
2023/05/09 12:34:47;;;;;;;4.57;4.28;;;20.30;99.90;;;;;;5073552;28;20066;-73
2023/05/09 12:37:17;;;;;;;4.90;4.60;;;20.30;99.90;;;;;;5056384;28;20016;-72
2023/05/09 12:39:44;;;;;;;5.70;5.20;;;20.50;99.90;;;;;;5062633;28;20044;-73
2023/05/09 12:42:11;;;;;;;4.78;4.38;;;20.60;99.90;;;;;;5075326;28;20039;-73
2023/05/09 12:44:37;;;;;;;5.82;5.32;;;20.60;99.90;;;;;;5085457;28;20074;-73
2023/05/09 12:47:03;;;;;;;6.30;5.18;;;20.70;99.90;;;;;;5073985;28;20025;-73